sensor_id;sensor_type;location;lat;lon;timestamp;P1;durP1;ratioP1;P2;durP2;ratioP2
10045;SDS011;5063;50.878;4.742;2024-03-02T00:02:42;0.73;;;0.73;;
10045;SDS011;5063;50.878;4.742;2024-03-02T00:05:27;0.83;;;0.50;;
10045;SDS011;5063;50.878;4.742;2024-03-02T00:07:57;0.57;;;0.57;;
10045;SDS011;5063;50.878;4.742;2024-03-02T00:10:26;0.80;;;0.67;;
10045;SDS011;5063;50.878;4.742;2024-03-02T00:13:01;2.47;;;0.77;;
10045;SDS011;5063;50.878;4.742;2024-03-02T00:18:14;0.60;;;0.60;;
10045;SDS011;5063;50.878;4.742;2024-03-02T00:20:44;0.70;;;0.70;;
10045;SDS011;5063;50.878;4.742;2024-03-02T00:23:12;2.67;;;0.77;;
10045;SDS011;5063;50.878;4.742;2024-03-02T00:25:44;0.70;;;0.70;;
10045;SDS011;5063;50.878;4.742;2024-03-02T00:28:17;0.60;;;0.60;;
10045;SDS011;5063;50.878;4.742;2024-03-02T00:33:09;0.73;;;0.70;;
10045;SDS011;5063;50.878;4.742;2024-03-02T00:35:35;1.17;;;0.90;;
10045;SDS011;5063;50.878;4.742;2024-03-02T00:38:05;1.90;;;0.60;;
10045;SDS011;5063;50.878;4.742;2024-03-02T00:40:31;1.23;;;0.80;;
10045;SDS011;5063;50.878;4.742;2024-03-02T00:42:57;1.17;;;0.70;;
10045;SDS011;5063;50.878;4.742;2024-03-02T00:45:24;0.50;;;0.50;;
10045;SDS011;5063;50.878;4.742;2024-03-02T00:47:51;0.90;;;0.90;;
10045;SDS011;5063;50.878;4.742;2024-03-02T00:50:17;1.80;;;0.73;;
10045;SDS011;5063;50.878;4.742;2024-03-02T00:52:43;1.63;;;0.90;;
10045;SDS011;5063;50.878;4.742;2024-03-02T00:55:09;0.70;;;0.70;;
10045;SDS011;5063;50.878;4.742;2024-03-02T00:57:35;1.13;;;0.50;;
10045;SDS011;5063;50.878;4.742;2024-03-02T01:00:01;1.47;;;0.70;;
10045;SDS011;5063;50.878;4.742;2024-03-02T01:02:28;0.60;;;0.60;;
10045;SDS011;5063;50.878;4.742;2024-03-02T01:04:54;0.80;;;0.80;;
10045;SDS011;5063;50.878;4.742;2024-03-02T01:07:20;0.70;;;0.60;;
10045;SDS011;5063;50.878;4.742;2024-03-02T01:09:45;1.17;;;0.80;;
10045;SDS011;5063;50.878;4.742;2024-03-02T01:12:11;0.70;;;0.70;;
10045;SDS011;5063;50.878;4.742;2024-03-02T01:14:37;1.30;;;0.70;;
10045;SDS011;5063;50.878;4.742;2024-03-02T01:17:02;0.50;;;0.50;;
10045;SDS011;5063;50.878;4.742;2024-03-02T01:19:29;1.20;;;0.63;;
10045;SDS011;5063;50.878;4.742;2024-03-02T01:21:55;0.57;;;0.57;;
10045;SDS011;5063;50.878;4.742;2024-03-02T01:24:21;0.60;;;0.60;;
10045;SDS011;5063;50.878;4.742;2024-03-02T01:26:47;0.50;;;0.50;;
10045;SDS011;5063;50.878;4.742;2024-03-02T01:29:13;0.97;;;0.80;;
10045;SDS011;5063;50.878;4.742;2024-03-02T01:31:39;0.30;;;0.30;;
10045;SDS011;5063;50.878;4.742;2024-03-02T01:34:07;0.83;;;0.83;;
10045;SDS011;5063;50.878;4.742;2024-03-02T01:36:33;4.60;;;0.87;;
10045;SDS011;5063;50.878;4.742;2024-03-02T01:38:59;1.33;;;0.50;;
10045;SDS011;5063;50.878;4.742;2024-03-02T01:41:25;0.43;;;0.43;;
10045;SDS011;5063;50.878;4.742;2024-03-02T01:43:50;0.40;;;0.40;;
10045;SDS011;5063;50.878;4.742;2024-03-02T01:46:16;0.67;;;0.60;;
10045;SDS011;5063;50.878;4.742;2024-03-02T01:48:42;0.60;;;0.50;;
10045;SDS011;5063;50.878;4.742;2024-03-02T01:51:08;0.80;;;0.80;;
10045;SDS011;5063;50.878;4.742;2024-03-02T01:53:34;0.97;;;0.97;;
10045;SDS011;5063;50.878;4.742;2024-03-02T01:56:00;0.80;;;0.80;;
10045;SDS011;5063;50.878;4.742;2024-03-02T01:58:26;1.10;;;1.00;;
10045;SDS011;5063;50.878;4.742;2024-03-02T02:00:52;1.03;;;0.70;;
10045;SDS011;5063;50.878;4.742;2024-03-02T02:03:18;2.10;;;1.00;;
10045;SDS011;5063;50.878;4.742;2024-03-02T02:05:44;0.67;;;0.67;;
10045;SDS011;5063;50.878;4.742;2024-03-02T02:08:12;0.73;;;0.73;;
10045;SDS011;5063;50.878;4.742;2024-03-02T02:10:37;0.50;;;0.50;;
10045;SDS011;5063;50.878;4.742;2024-03-02T02:13:03;2.47;;;0.77;;
10045;SDS011;5063;50.878;4.742;2024-03-02T02:15:29;0.40;;;0.40;;
10045;SDS011;5063;50.878;4.742;2024-03-02T02:17:56;3.63;;;0.50;;
10045;SDS011;5063;50.878;4.742;2024-03-02T02:20:22;0.67;;;0.47;;
10045;SDS011;5063;50.878;4.742;2024-03-02T02:22:56;1.40;;;0.50;;
10045;SDS011;5063;50.878;4.742;2024-03-02T02:25:22;0.70;;;0.70;;
10045;SDS011;5063;50.878;4.742;2024-03-02T02:27:48;1.00;;;0.60;;
10045;SDS011;5063;50.878;4.742;2024-03-02T02:30:18;0.90;;;0.70;;
10045;SDS011;5063;50.878;4.742;2024-03-02T02:32:50;1.67;;;0.70;;
10045;SDS011;5063;50.878;4.742;2024-03-02T02:35:16;0.83;;;0.70;;
10045;SDS011;5063;50.878;4.742;2024-03-02T02:37:42;0.43;;;0.43;;
10045;SDS011;5063;50.878;4.742;2024-03-02T02:40:08;0.70;;;0.70;;
10045;SDS011;5063;50.878;4.742;2024-03-02T02:42:34;0.83;;;0.70;;
10045;SDS011;5063;50.878;4.742;2024-03-02T02:45:00;0.47;;;0.43;;
10045;SDS011;5063;50.878;4.742;2024-03-02T02:47:26;1.03;;;0.83;;
10045;SDS011;5063;50.878;4.742;2024-03-02T02:49:51;2.37;;;0.57;;
10045;SDS011;5063;50.878;4.742;2024-03-02T02:52:17;0.87;;;0.60;;
10045;SDS011;5063;50.878;4.742;2024-03-02T02:54:43;1.13;;;0.57;;
10045;SDS011;5063;50.878;4.742;2024-03-02T02:57:09;1.27;;;1.00;;
10045;SDS011;5063;50.878;4.742;2024-03-02T02:59:35;3.00;;;0.67;;
10045;SDS011;5063;50.878;4.742;2024-03-02T03:02:02;3.80;;;0.83;;
10045;SDS011;5063;50.878;4.742;2024-03-02T03:04:27;2.13;;;0.60;;
10045;SDS011;5063;50.878;4.742;2024-03-02T03:06:53;1.20;;;0.60;;
10045;SDS011;5063;50.878;4.742;2024-03-02T03:09:19;0.60;;;0.60;;
10045;SDS011;5063;50.878;4.742;2024-03-02T03:11:44;1.30;;;0.70;;
10045;SDS011;5063;50.878;4.742;2024-03-02T03:14:10;0.93;;;0.50;;
10045;SDS011;5063;50.878;4.742;2024-03-02T03:16:36;1.00;;;0.80;;
10045;SDS011;5063;50.878;4.742;2024-03-02T03:19:01;2.23;;;0.67;;
10045;SDS011;5063;50.878;4.742;2024-03-02T03:21:27;4.57;;;1.23;;
10045;SDS011;5063;50.878;4.742;2024-03-02T03:23:53;3.90;;;0.93;;
10045;SDS011;5063;50.878;4.742;2024-03-02T03:26:20;0.60;;;0.60;;
10045;SDS011;5063;50.878;4.742;2024-03-02T03:28:46;1.47;;;0.70;;
10045;SDS011;5063;50.878;4.742;2024-03-02T03:31:11;1.70;;;0.67;;
10045;SDS011;5063;50.878;4.742;2024-03-02T03:33:37;1.00;;;1.00;;
10045;SDS011;5063;50.878;4.742;2024-03-02T03:36:03;2.83;;;0.87;;
10045;SDS011;5063;50.878;4.742;2024-03-02T03:38:29;0.83;;;0.70;;
10045;SDS011;5063;50.878;4.742;2024-03-02T03:40:55;2.20;;;0.90;;
10045;SDS011;5063;50.878;4.742;2024-03-02T03:43:21;1.53;;;0.80;;
10045;SDS011;5063;50.878;4.742;2024-03-02T03:45:46;4.20;;;1.23;;
10045;SDS011;5063;50.878;4.742;2024-03-02T03:48:12;0.90;;;0.70;;
10045;SDS011;5063;50.878;4.742;2024-03-02T03:50:38;1.10;;;0.80;;
10045;SDS011;5063;50.878;4.742;2024-03-02T03:53:04;2.83;;;0.67;;
10045;SDS011;5063;50.878;4.742;2024-03-02T03:55:29;3.77;;;0.80;;
10045;SDS011;5063;50.878;4.742;2024-03-02T03:57:55;2.17;;;0.60;;
10045;SDS011;5063;50.878;4.742;2024-03-02T04:00:21;3.00;;;0.70;;
10045;SDS011;5063;50.878;4.742;2024-03-02T04:02:47;1.73;;;0.77;;
10045;SDS011;5063;50.878;4.742;2024-03-02T04:05:12;1.07;;;0.80;;
10045;SDS011;5063;50.878;4.742;2024-03-02T04:07:38;3.63;;;1.17;;
10045;SDS011;5063;50.878;4.742;2024-03-02T04:10:08;2.07;;;0.63;;
10045;SDS011;5063;50.878;4.742;2024-03-02T04:12:35;2.23;;;1.00;;
10045;SDS011;5063;50.878;4.742;2024-03-02T04:15:02;2.10;;;0.87;;
10045;SDS011;5063;50.878;4.742;2024-03-02T04:17:29;3.20;;;1.07;;
10045;SDS011;5063;50.878;4.742;2024-03-02T04:19:56;1.97;;;1.00;;
10045;SDS011;5063;50.878;4.742;2024-03-02T04:22:22;0.93;;;0.73;;
10045;SDS011;5063;50.878;4.742;2024-03-02T04:24:48;2.20;;;1.10;;
10045;SDS011;5063;50.878;4.742;2024-03-02T04:27:13;3.10;;;0.90;;
10045;SDS011;5063;50.878;4.742;2024-03-02T04:29:39;3.10;;;0.97;;
10045;SDS011;5063;50.878;4.742;2024-03-02T04:32:05;1.00;;;0.70;;
10045;SDS011;5063;50.878;4.742;2024-03-02T04:34:31;1.40;;;1.00;;
10045;SDS011;5063;50.878;4.742;2024-03-02T04:36:57;0.97;;;0.80;;
10045;SDS011;5063;50.878;4.742;2024-03-02T04:39:23;0.93;;;0.63;;
10045;SDS011;5063;50.878;4.742;2024-03-02T04:41:49;1.27;;;0.90;;
10045;SDS011;5063;50.878;4.742;2024-03-02T04:44:15;3.23;;;0.93;;
10045;SDS011;5063;50.878;4.742;2024-03-02T04:46:41;1.30;;;0.90;;
10045;SDS011;5063;50.878;4.742;2024-03-02T04:49:06;1.67;;;0.90;;
10045;SDS011;5063;50.878;4.742;2024-03-02T04:51:32;0.97;;;0.87;;
10045;SDS011;5063;50.878;4.742;2024-03-02T04:53:59;2.33;;;0.80;;
10045;SDS011;5063;50.878;4.742;2024-03-02T04:56:24;1.30;;;0.77;;
10045;SDS011;5063;50.878;4.742;2024-03-02T04:58:56;0.63;;;0.63;;
10045;SDS011;5063;50.878;4.742;2024-03-02T05:01:22;2.00;;;0.90;;
10045;SDS011;5063;50.878;4.742;2024-03-02T05:03:48;2.33;;;0.80;;
10045;SDS011;5063;50.878;4.742;2024-03-02T05:06:14;4.10;;;1.13;;
10045;SDS011;5063;50.878;4.742;2024-03-02T05:08:40;0.70;;;0.70;;
10045;SDS011;5063;50.878;4.742;2024-03-02T05:11:05;1.43;;;1.03;;
10045;SDS011;5063;50.878;4.742;2024-03-02T05:13:50;1.17;;;1.03;;
10045;SDS011;5063;50.878;4.742;2024-03-02T05:16:15;4.20;;;1.07;;
10045;SDS011;5063;50.878;4.742;2024-03-02T05:18:41;2.17;;;0.73;;
10045;SDS011;5063;50.878;4.742;2024-03-02T05:21:07;1.47;;;0.80;;
10045;SDS011;5063;50.878;4.742;2024-03-02T05:23:32;1.47;;;0.87;;
10045;SDS011;5063;50.878;4.742;2024-03-02T05:25:58;1.27;;;1.00;;
10045;SDS011;5063;50.878;4.742;2024-03-02T05:28:24;0.70;;;0.70;;
10045;SDS011;5063;50.878;4.742;2024-03-02T05:30:50;1.90;;;0.63;;
10045;SDS011;5063;50.878;4.742;2024-03-02T05:33:15;2.10;;;0.90;;
10045;SDS011;5063;50.878;4.742;2024-03-02T05:35:41;3.77;;;1.20;;
10045;SDS011;5063;50.878;4.742;2024-03-02T05:38:08;6.93;;;1.17;;
10045;SDS011;5063;50.878;4.742;2024-03-02T05:40:34;3.00;;;1.50;;
10045;SDS011;5063;50.878;4.742;2024-03-02T05:43:00;3.63;;;1.03;;
10045;SDS011;5063;50.878;4.742;2024-03-02T05:45:25;2.30;;;0.90;;
10045;SDS011;5063;50.878;4.742;2024-03-02T05:47:51;1.60;;;1.03;;
10045;SDS011;5063;50.878;4.742;2024-03-02T05:50:17;3.13;;;1.17;;
10045;SDS011;5063;50.878;4.742;2024-03-02T05:52:45;3.73;;;1.37;;
10045;SDS011;5063;50.878;4.742;2024-03-02T05:55:10;1.87;;;1.30;;
10045;SDS011;5063;50.878;4.742;2024-03-02T05:57:36;3.00;;;1.23;;
10045;SDS011;5063;50.878;4.742;2024-03-02T06:00:20;1.53;;;1.20;;
10045;SDS011;5063;50.878;4.742;2024-03-02T06:02:47;2.20;;;1.10;;
10045;SDS011;5063;50.878;4.742;2024-03-02T06:05:13;3.30;;;1.33;;
10045;SDS011;5063;50.878;4.742;2024-03-02T06:07:40;3.20;;;1.20;;
10045;SDS011;5063;50.878;4.742;2024-03-02T06:10:05;3.93;;;1.30;;
10045;SDS011;5063;50.878;4.742;2024-03-02T06:12:34;7.60;;;1.43;;
10045;SDS011;5063;50.878;4.742;2024-03-02T06:14:59;8.27;;;1.30;;
10045;SDS011;5063;50.878;4.742;2024-03-02T06:17:25;2.13;;;1.10;;
10045;SDS011;5063;50.878;4.742;2024-03-02T06:19:51;2.73;;;1.30;;
10045;SDS011;5063;50.878;4.742;2024-03-02T06:22:17;3.80;;;1.13;;
10045;SDS011;5063;50.878;4.742;2024-03-02T06:24:44;1.47;;;0.93;;
10045;SDS011;5063;50.878;4.742;2024-03-02T06:27:10;3.07;;;1.43;;
10045;SDS011;5063;50.878;4.742;2024-03-02T06:29:35;3.30;;;1.27;;
10045;SDS011;5063;50.878;4.742;2024-03-02T06:32:01;4.63;;;1.40;;
10045;SDS011;5063;50.878;4.742;2024-03-02T06:34:27;1.67;;;1.50;;
10045;SDS011;5063;50.878;4.742;2024-03-02T06:36:52;4.17;;;1.37;;
10045;SDS011;5063;50.878;4.742;2024-03-02T06:39:18;2.60;;;1.00;;
10045;SDS011;5063;50.878;4.742;2024-03-02T06:41:44;2.53;;;1.17;;
10045;SDS011;5063;50.878;4.742;2024-03-02T06:44:12;2.93;;;1.27;;
10045;SDS011;5063;50.878;4.742;2024-03-02T06:46:38;4.50;;;1.10;;
10045;SDS011;5063;50.878;4.742;2024-03-02T06:49:04;3.57;;;1.20;;
10045;SDS011;5063;50.878;4.742;2024-03-02T06:51:29;2.47;;;1.43;;
10045;SDS011;5063;50.878;4.742;2024-03-02T06:53:55;2.00;;;1.30;;
10045;SDS011;5063;50.878;4.742;2024-03-02T06:56:21;3.43;;;1.10;;
10045;SDS011;5063;50.878;4.742;2024-03-02T06:58:47;3.10;;;1.10;;
10045;SDS011;5063;50.878;4.742;2024-03-02T07:01:13;3.80;;;1.30;;
10045;SDS011;5063;50.878;4.742;2024-03-02T07:03:39;2.73;;;1.10;;
10045;SDS011;5063;50.878;4.742;2024-03-02T07:06:05;4.67;;;1.20;;
10045;SDS011;5063;50.878;4.742;2024-03-02T07:08:31;4.03;;;1.40;;
10045;SDS011;5063;50.878;4.742;2024-03-02T07:10:56;2.80;;;1.40;;
10045;SDS011;5063;50.878;4.742;2024-03-02T07:13:22;2.67;;;0.90;;
10045;SDS011;5063;50.878;4.742;2024-03-02T07:15:48;1.70;;;0.97;;
10045;SDS011;5063;50.878;4.742;2024-03-02T07:18:29;1.57;;;1.10;;
10045;SDS011;5063;50.878;4.742;2024-03-02T07:21:09;4.23;;;1.40;;
10045;SDS011;5063;50.878;4.742;2024-03-02T07:23:35;1.87;;;1.20;;
10045;SDS011;5063;50.878;4.742;2024-03-02T07:26:01;0.93;;;0.77;;
10045;SDS011;5063;50.878;4.742;2024-03-02T07:28:28;2.40;;;1.20;;
10045;SDS011;5063;50.878;4.742;2024-03-02T07:31:01;3.03;;;0.93;;
10045;SDS011;5063;50.878;4.742;2024-03-02T07:33:28;2.80;;;1.00;;
10045;SDS011;5063;50.878;4.742;2024-03-02T07:35:54;3.37;;;1.10;;
10045;SDS011;5063;50.878;4.742;2024-03-02T07:38:24;2.73;;;1.27;;
10045;SDS011;5063;50.878;4.742;2024-03-02T07:40:50;2.53;;;1.50;;
10045;SDS011;5063;50.878;4.742;2024-03-02T07:43:16;3.67;;;1.07;;
10045;SDS011;5063;50.878;4.742;2024-03-02T07:45:42;2.40;;;1.10;;
10045;SDS011;5063;50.878;4.742;2024-03-02T07:48:08;3.30;;;1.00;;
10045;SDS011;5063;50.878;4.742;2024-03-02T07:50:34;2.47;;;1.20;;
10045;SDS011;5063;50.878;4.742;2024-03-02T07:53:03;5.10;;;1.30;;
10045;SDS011;5063;50.878;4.742;2024-03-02T07:55:29;2.77;;;1.03;;
10045;SDS011;5063;50.878;4.742;2024-03-02T07:57:56;7.10;;;1.30;;
10045;SDS011;5063;50.878;4.742;2024-03-02T08:00:22;2.87;;;1.37;;
10045;SDS011;5063;50.878;4.742;2024-03-02T08:02:48;3.30;;;1.20;;
10045;SDS011;5063;50.878;4.742;2024-03-02T08:05:17;2.13;;;1.30;;
10045;SDS011;5063;50.878;4.742;2024-03-02T08:07:44;1.60;;;1.10;;
10045;SDS011;5063;50.878;4.742;2024-03-02T08:10:10;3.17;;;1.20;;
10045;SDS011;5063;50.878;4.742;2024-03-02T08:12:36;1.50;;;1.00;;
10045;SDS011;5063;50.878;4.742;2024-03-02T08:15:02;2.70;;;1.40;;
10045;SDS011;5063;50.878;4.742;2024-03-02T08:17:27;1.27;;;1.03;;
10045;SDS011;5063;50.878;4.742;2024-03-02T08:19:53;3.67;;;1.20;;
10045;SDS011;5063;50.878;4.742;2024-03-02T08:22:19;4.50;;;1.40;;
10045;SDS011;5063;50.878;4.742;2024-03-02T08:24:45;3.40;;;1.20;;
10045;SDS011;5063;50.878;4.742;2024-03-02T08:27:11;1.50;;;1.20;;
10045;SDS011;5063;50.878;4.742;2024-03-02T08:29:37;3.83;;;1.03;;
10045;SDS011;5063;50.878;4.742;2024-03-02T08:32:04;5.10;;;1.40;;
10045;SDS011;5063;50.878;4.742;2024-03-02T08:34:30;4.40;;;1.47;;
10045;SDS011;5063;50.878;4.742;2024-03-02T08:36:56;5.33;;;1.33;;
10045;SDS011;5063;50.878;4.742;2024-03-02T08:39:22;6.77;;;1.60;;
10045;SDS011;5063;50.878;4.742;2024-03-02T08:41:48;5.43;;;1.60;;
10045;SDS011;5063;50.878;4.742;2024-03-02T08:44:14;3.67;;;1.47;;
10045;SDS011;5063;50.878;4.742;2024-03-02T08:46:40;3.20;;;1.30;;
10045;SDS011;5063;50.878;4.742;2024-03-02T08:49:06;4.37;;;1.10;;
10045;SDS011;5063;50.878;4.742;2024-03-02T08:51:32;3.70;;;1.20;;
10045;SDS011;5063;50.878;4.742;2024-03-02T08:53:58;3.00;;;1.30;;
10045;SDS011;5063;50.878;4.742;2024-03-02T08:56:24;1.93;;;0.97;;
10045;SDS011;5063;50.878;4.742;2024-03-02T08:58:51;4.33;;;1.43;;
10045;SDS011;5063;50.878;4.742;2024-03-02T09:01:17;3.17;;;1.30;;
10045;SDS011;5063;50.878;4.742;2024-03-02T09:03:44;4.47;;;1.57;;
10045;SDS011;5063;50.878;4.742;2024-03-02T09:06:13;1.60;;;0.97;;
10045;SDS011;5063;50.878;4.742;2024-03-02T09:08:39;3.03;;;1.13;;
10045;SDS011;5063;50.878;4.742;2024-03-02T09:11:05;2.17;;;1.23;;
10045;SDS011;5063;50.878;4.742;2024-03-02T09:13:32;2.40;;;0.90;;
10045;SDS011;5063;50.878;4.742;2024-03-02T09:15:58;5.67;;;1.30;;
10045;SDS011;5063;50.878;4.742;2024-03-02T09:18:24;3.70;;;1.00;;
10045;SDS011;5063;50.878;4.742;2024-03-02T09:20:50;2.60;;;0.97;;
10045;SDS011;5063;50.878;4.742;2024-03-02T09:23:15;5.97;;;1.23;;
10045;SDS011;5063;50.878;4.742;2024-03-02T09:25:41;7.27;;;1.37;;
10045;SDS011;5063;50.878;4.742;2024-03-02T09:28:07;4.60;;;1.50;;
10045;SDS011;5063;50.878;4.742;2024-03-02T09:30:33;2.00;;;0.90;;
10045;SDS011;5063;50.878;4.742;2024-03-02T09:32:58;1.87;;;1.13;;
10045;SDS011;5063;50.878;4.742;2024-03-02T09:35:24;2.97;;;1.20;;
10045;SDS011;5063;50.878;4.742;2024-03-02T09:37:50;3.50;;;1.30;;
10045;SDS011;5063;50.878;4.742;2024-03-02T09:40:16;2.97;;;1.20;;
10045;SDS011;5063;50.878;4.742;2024-03-02T09:42:42;2.60;;;1.53;;
10045;SDS011;5063;50.878;4.742;2024-03-02T09:45:08;6.50;;;1.10;;
10045;SDS011;5063;50.878;4.742;2024-03-02T09:47:34;4.03;;;1.47;;
10045;SDS011;5063;50.878;4.742;2024-03-02T09:50:00;5.77;;;1.73;;
10045;SDS011;5063;50.878;4.742;2024-03-02T09:52:26;6.00;;;1.73;;
10045;SDS011;5063;50.878;4.742;2024-03-02T09:54:52;5.73;;;1.60;;
10045;SDS011;5063;50.878;4.742;2024-03-02T09:57:18;4.77;;;2.03;;
10045;SDS011;5063;50.878;4.742;2024-03-02T09:59:44;4.70;;;1.60;;
10045;SDS011;5063;50.878;4.742;2024-03-02T10:02:10;4.43;;;1.40;;
10045;SDS011;5063;50.878;4.742;2024-03-02T10:04:36;2.37;;;1.13;;
10045;SDS011;5063;50.878;4.742;2024-03-02T10:07:15;5.37;;;1.77;;
10045;SDS011;5063;50.878;4.742;2024-03-02T10:09:42;6.37;;;1.50;;
10045;SDS011;5063;50.878;4.742;2024-03-02T10:12:09;5.50;;;1.37;;
10045;SDS011;5063;50.878;4.742;2024-03-02T10:14:36;3.77;;;1.47;;
10045;SDS011;5063;50.878;4.742;2024-03-02T10:17:06;4.97;;;1.57;;
10045;SDS011;5063;50.878;4.742;2024-03-02T10:19:38;3.80;;;1.30;;
10045;SDS011;5063;50.878;4.742;2024-03-02T10:22:05;4.73;;;1.60;;
10045;SDS011;5063;50.878;4.742;2024-03-02T10:24:38;3.47;;;1.50;;
10045;SDS011;5063;50.878;4.742;2024-03-02T10:27:08;3.97;;;1.50;;
10045;SDS011;5063;50.878;4.742;2024-03-02T10:29:39;3.70;;;1.30;;
10045;SDS011;5063;50.878;4.742;2024-03-02T10:32:06;4.70;;;1.40;;
10045;SDS011;5063;50.878;4.742;2024-03-02T10:34:35;3.77;;;1.53;;
10045;SDS011;5063;50.878;4.742;2024-03-02T10:37:01;3.67;;;1.20;;
10045;SDS011;5063;50.878;4.742;2024-03-02T10:39:27;3.37;;;1.00;;
10045;SDS011;5063;50.878;4.742;2024-03-02T10:41:53;2.00;;;1.20;;
10045;SDS011;5063;50.878;4.742;2024-03-02T10:44:21;3.07;;;1.20;;
10045;SDS011;5063;50.878;4.742;2024-03-02T10:46:48;2.37;;;0.90;;
10045;SDS011;5063;50.878;4.742;2024-03-02T10:49:15;4.87;;;1.40;;
10045;SDS011;5063;50.878;4.742;2024-03-02T10:51:42;6.03;;;1.40;;
10045;SDS011;5063;50.878;4.742;2024-03-02T10:54:08;2.60;;;0.90;;
10045;SDS011;5063;50.878;4.742;2024-03-02T10:56:37;3.27;;;1.27;;
10045;SDS011;5063;50.878;4.742;2024-03-02T10:59:16;2.87;;;1.63;;
10045;SDS011;5063;50.878;4.742;2024-03-02T11:01:52;1.60;;;0.90;;
10045;SDS011;5063;50.878;4.742;2024-03-02T11:04:21;2.90;;;1.27;;
10045;SDS011;5063;50.878;4.742;2024-03-02T11:06:49;3.87;;;1.57;;
10045;SDS011;5063;50.878;4.742;2024-03-02T11:09:18;5.13;;;1.53;;
10045;SDS011;5063;50.878;4.742;2024-03-02T11:11:49;2.57;;;1.10;;
10045;SDS011;5063;50.878;4.742;2024-03-02T11:14:21;3.37;;;1.27;;
10045;SDS011;5063;50.878;4.742;2024-03-02T11:16:49;2.80;;;1.60;;
10045;SDS011;5063;50.878;4.742;2024-03-02T11:19:16;4.13;;;1.27;;
10045;SDS011;5063;50.878;4.742;2024-03-02T11:21:43;5.07;;;1.40;;
10045;SDS011;5063;50.878;4.742;2024-03-02T11:26:53;2.40;;;1.13;;
10045;SDS011;5063;50.878;4.742;2024-03-02T11:32:08;2.07;;;0.90;;
10045;SDS011;5063;50.878;4.742;2024-03-02T11:34:41;2.07;;;1.17;;
10045;SDS011;5063;50.878;4.742;2024-03-02T11:37:20;5.03;;;1.13;;
10045;SDS011;5063;50.878;4.742;2024-03-02T11:39:46;6.00;;;1.60;;
10045;SDS011;5063;50.878;4.742;2024-03-02T11:42:14;4.90;;;1.50;;
10045;SDS011;5063;50.878;4.742;2024-03-02T11:44:47;5.63;;;1.40;;
10045;SDS011;5063;50.878;4.742;2024-03-02T11:47:17;2.93;;;1.50;;
10045;SDS011;5063;50.878;4.742;2024-03-02T11:49:50;9.57;;;1.93;;
10045;SDS011;5063;50.878;4.742;2024-03-02T11:52:19;6.60;;;1.87;;
10045;SDS011;5063;50.878;4.742;2024-03-02T11:54:47;2.50;;;0.93;;
10045;SDS011;5063;50.878;4.742;2024-03-02T11:57:17;4.07;;;1.53;;
10045;SDS011;5063;50.878;4.742;2024-03-02T11:59:44;1.77;;;1.20;;
10045;SDS011;5063;50.878;4.742;2024-03-02T12:02:14;2.83;;;1.20;;
10045;SDS011;5063;50.878;4.742;2024-03-02T12:04:42;3.90;;;1.40;;
10045;SDS011;5063;50.878;4.742;2024-03-02T12:07:10;5.07;;;1.80;;
10045;SDS011;5063;50.878;4.742;2024-03-02T12:09:36;5.60;;;1.60;;
10045;SDS011;5063;50.878;4.742;2024-03-02T12:14:32;3.87;;;1.27;;
10045;SDS011;5063;50.878;4.742;2024-03-02T12:16:58;3.63;;;1.47;;
10045;SDS011;5063;50.878;4.742;2024-03-02T12:19:28;3.03;;;0.97;;
10045;SDS011;5063;50.878;4.742;2024-03-02T12:21:58;3.33;;;1.33;;
10045;SDS011;5063;50.878;4.742;2024-03-02T12:24:26;2.77;;;1.47;;
10045;SDS011;5063;50.878;4.742;2024-03-02T12:26:53;4.07;;;1.20;;
10045;SDS011;5063;50.878;4.742;2024-03-02T12:29:20;4.03;;;1.10;;
10045;SDS011;5063;50.878;4.742;2024-03-02T12:31:52;7.37;;;2.00;;
10045;SDS011;5063;50.878;4.742;2024-03-02T12:34:18;2.57;;;1.37;;
10045;SDS011;5063;50.878;4.742;2024-03-02T12:36:48;5.67;;;1.50;;
10045;SDS011;5063;50.878;4.742;2024-03-02T12:39:21;3.17;;;1.53;;
10045;SDS011;5063;50.878;4.742;2024-03-02T12:41:48;4.57;;;1.53;;
10045;SDS011;5063;50.878;4.742;2024-03-02T12:44:15;3.50;;;1.43;;
10045;SDS011;5063;50.878;4.742;2024-03-02T12:46:43;3.33;;;1.33;;
10045;SDS011;5063;50.878;4.742;2024-03-02T12:49:13;4.80;;;1.60;;
10045;SDS011;5063;50.878;4.742;2024-03-02T12:51:43;2.47;;;1.23;;
10045;SDS011;5063;50.878;4.742;2024-03-02T12:54:12;2.87;;;1.30;;
10045;SDS011;5063;50.878;4.742;2024-03-02T12:56:38;2.03;;;1.23;;
10045;SDS011;5063;50.878;4.742;2024-03-02T12:59:04;6.07;;;1.70;;
10045;SDS011;5063;50.878;4.742;2024-03-02T13:01:30;4.37;;;1.30;;
10045;SDS011;5063;50.878;4.742;2024-03-02T13:03:57;2.70;;;1.00;;
10045;SDS011;5063;50.878;4.742;2024-03-02T13:06:24;1.63;;;0.90;;
10045;SDS011;5063;50.878;4.742;2024-03-02T13:08:53;1.50;;;0.90;;
10045;SDS011;5063;50.878;4.742;2024-03-02T13:11:19;4.93;;;1.53;;
10045;SDS011;5063;50.878;4.742;2024-03-02T13:13:45;1.90;;;1.30;;
10045;SDS011;5063;50.878;4.742;2024-03-02T13:16:12;3.47;;;1.50;;
10045;SDS011;5063;50.878;4.742;2024-03-02T13:18:39;2.67;;;1.27;;
10045;SDS011;5063;50.878;4.742;2024-03-02T13:21:05;4.13;;;1.27;;
10045;SDS011;5063;50.878;4.742;2024-03-02T13:23:31;1.67;;;1.00;;
10045;SDS011;5063;50.878;4.742;2024-03-02T13:25:57;4.67;;;1.57;;
10045;SDS011;5063;50.878;4.742;2024-03-02T13:28:23;5.10;;;1.47;;
10045;SDS011;5063;50.878;4.742;2024-03-02T13:30:52;1.90;;;1.33;;
10045;SDS011;5063;50.878;4.742;2024-03-02T13:33:18;3.23;;;0.97;;
10045;SDS011;5063;50.878;4.742;2024-03-02T13:35:55;2.37;;;1.10;;
10045;SDS011;5063;50.878;4.742;2024-03-02T13:38:21;4.13;;;1.17;;
10045;SDS011;5063;50.878;4.742;2024-03-02T13:40:48;3.67;;;1.23;;
10045;SDS011;5063;50.878;4.742;2024-03-02T13:43:17;1.97;;;1.07;;
10045;SDS011;5063;50.878;4.742;2024-03-02T13:45:47;1.60;;;0.87;;
10045;SDS011;5063;50.878;4.742;2024-03-02T13:48:13;2.07;;;1.07;;
10045;SDS011;5063;50.878;4.742;2024-03-02T13:50:39;2.40;;;1.17;;
10045;SDS011;5063;50.878;4.742;2024-03-02T13:53:05;2.53;;;1.07;;
10045;SDS011;5063;50.878;4.742;2024-03-02T13:55:32;1.00;;;0.90;;
10045;SDS011;5063;50.878;4.742;2024-03-02T13:57:58;3.20;;;1.07;;
10045;SDS011;5063;50.878;4.742;2024-03-02T14:00:24;3.63;;;1.13;;
10045;SDS011;5063;50.878;4.742;2024-03-02T14:02:51;3.77;;;1.00;;
10045;SDS011;5063;50.878;4.742;2024-03-02T14:05:17;1.90;;;1.00;;
10045;SDS011;5063;50.878;4.742;2024-03-02T14:07:44;0.90;;;0.77;;
10045;SDS011;5063;50.878;4.742;2024-03-02T14:10:10;2.10;;;1.03;;
10045;SDS011;5063;50.878;4.742;2024-03-02T14:12:36;1.67;;;1.13;;
10045;SDS011;5063;50.878;4.742;2024-03-02T14:15:02;3.23;;;1.00;;
10045;SDS011;5063;50.878;4.742;2024-03-02T14:17:29;0.73;;;0.73;;
10045;SDS011;5063;50.878;4.742;2024-03-02T14:19:57;2.40;;;1.03;;
10045;SDS011;5063;50.878;4.742;2024-03-02T14:22:24;3.67;;;1.07;;
10045;SDS011;5063;50.878;4.742;2024-03-02T14:24:50;1.53;;;1.10;;
10045;SDS011;5063;50.878;4.742;2024-03-02T14:27:16;1.43;;;1.00;;
10045;SDS011;5063;50.878;4.742;2024-03-02T14:29:42;1.27;;;0.83;;
10045;SDS011;5063;50.878;4.742;2024-03-02T14:32:08;1.70;;;0.90;;
10045;SDS011;5063;50.878;4.742;2024-03-02T14:34:34;2.53;;;1.33;;
10045;SDS011;5063;50.878;4.742;2024-03-02T14:37:00;1.77;;;0.97;;
10045;SDS011;5063;50.878;4.742;2024-03-02T14:39:26;2.23;;;1.03;;
10045;SDS011;5063;50.878;4.742;2024-03-02T14:41:52;0.97;;;0.70;;
10045;SDS011;5063;50.878;4.742;2024-03-02T14:44:18;1.80;;;0.90;;
10045;SDS011;5063;50.878;4.742;2024-03-02T14:46:46;2.57;;;1.17;;
10045;SDS011;5063;50.878;4.742;2024-03-02T14:49:13;2.70;;;1.20;;
10045;SDS011;5063;50.878;4.742;2024-03-02T14:51:39;2.80;;;1.03;;
10045;SDS011;5063;50.878;4.742;2024-03-02T14:54:04;3.07;;;1.10;;
10045;SDS011;5063;50.878;4.742;2024-03-02T14:56:30;2.00;;;1.10;;
10045;SDS011;5063;50.878;4.742;2024-03-02T14:58:56;1.00;;;0.87;;
10045;SDS011;5063;50.878;4.742;2024-03-02T15:01:22;1.40;;;1.30;;
10045;SDS011;5063;50.878;4.742;2024-03-02T15:03:48;1.63;;;0.90;;
10045;SDS011;5063;50.878;4.742;2024-03-02T15:06:15;1.90;;;1.00;;
10045;SDS011;5063;50.878;4.742;2024-03-02T15:08:40;1.20;;;0.90;;
10045;SDS011;5063;50.878;4.742;2024-03-02T15:11:07;1.83;;;1.00;;
10045;SDS011;5063;50.878;4.742;2024-03-02T15:13:33;3.00;;;1.33;;